Time;durP1;ratioP1;P1;durP2;ratioP2;P2;SDS_P1;SDS_P2;PMS_P1;PMS_P2;Temp;Humidity;BMP_temperature;BMP_pressure;BME280_temperature;BME280_humidity;BME280_pressure;Samples;Min_cycle;Max_cycle;Signal;HPM_P1;HPM_P2
2024/03/05 00:00:11;;;;;;;71.80;40.87;;;8.10;99.90;;;-141.84;100.00;119222.75;5046799;28;20230;-62
2024/03/05 00:02:41;;;;;;;78.00;42.37;;;8.20;99.90;;;-141.84;100.00;119222.75;5040245;28;20709;-61
2024/03/05 00:05:13;;;;;;;76.07;43.33;;;8.20;99.90;;;-141.84;100.00;119222.75;5050957;28;20308;-61
2024/03/05 00:07:43;;;;;;;79.57;43.27;;;8.20;99.90;;;-141.84;100.00;119224.81;5050186;28;20228;-62
2024/03/05 00:10:13;;;;;;;68.87;40.40;;;8.20;99.90;;;-141.84;100.00;119224.81;5068508;28;20232;-61
2024/03/05 00:12:42;;;;;;;85.13;44.77;;;8.10;99.90;;;-141.84;100.00;119224.81;5067204;28;20220;-62
2024/03/05 00:15:12;;;;;;;83.23;44.27;;;8.20;99.90;;;-141.84;100.00;119224.81;5071155;28;20309;-62
2024/03/05 00:17:44;;;;;;;84.83;44.87;;;8.10;99.90;;;-141.84;100.00;119224.81;5052050;28;20577;-62
2024/03/05 00:20:19;;;;;;;74.67;41.37;;;8.10;99.90;;;-141.84;100.00;119224.81;5069929;28;20224;-63
2024/03/05 00:22:50;;;;;;;81.57;44.37;;;8.10;99.90;;;-141.84;100.00;119224.81;5062297;28;20668;-62
2024/03/05 00:25:19;;;;;;;86.30;45.43;;;8.10;99.90;;;-141.84;100.00;119224.81;5066942;28;20394;-60
2024/03/05 00:27:48;;;;;;;77.73;44.43;;;8.10;99.90;;;-141.84;100.00;119224.81;5069788;28;20227;-62
2024/03/05 00:30:18;;;;;;;82.87;45.97;;;8.10;99.90;;;-141.84;100.00;119224.81;5071696;28;20189;-62
2024/03/05 00:32:47;;;;;;;86.20;44.37;;;8.10;99.90;;;-141.84;100.00;119224.81;5069470;28;20213;-62
2024/03/05 00:35:17;;;;;;;85.30;46.20;;;8.10;99.90;;;-141.84;100.00;119224.81;5068348;28;20228;-62
2024/03/05 00:37:45;;;;;;;83.87;44.33;;;8.10;99.90;;;-141.84;100.00;119224.81;5069166;28;20958;-62
2024/03/05 00:40:15;;;;;;;90.90;46.67;;;8.10;99.90;;;-141.84;100.00;119224.81;5068019;28;20244;-62
2024/03/05 00:42:43;;;;;;;86.27;46.60;;;8.10;99.90;;;-141.84;100.00;119224.81;5061512;28;20259;-62
2024/03/05 00:45:17;;;;;;;85.73;43.63;;;8.20;99.90;;;-141.84;100.00;119224.81;5070398;28;20189;-63
2024/03/05 00:47:45;;;;;;;92.07;45.47;;;8.10;99.90;;;-141.84;100.00;119224.81;5069838;28;20215;-61
2024/03/05 00:50:19;;;;;;;93.93;46.80;;;8.10;99.90;;;-141.84;100.00;119224.81;5068692;28;20216;-60
2024/03/05 00:52:47;;;;;;;84.07;46.13;;;8.10;99.90;;;-141.84;100.00;119224.81;5067507;28;20216;-62
2024/03/05 00:55:15;;;;;;;82.50;43.63;;;8.10;99.90;;;-141.84;100.00;119224.81;5068368;28;20317;-61
2024/03/05 00:57:44;;;;;;;93.70;47.20;;;8.10;99.90;;;-141.84;100.00;119224.81;5070277;28;20544;-61
2024/03/05 01:00:19;;;;;;;95.43;47.57;;;8.10;99.90;;;-141.84;100.00;119224.81;5069688;28;20224;-62
2024/03/05 01:02:47;;;;;;;102.00;48.97;;;8.10;99.90;;;-141.84;100.00;119224.81;5060292;28;20295;-62
2024/03/05 01:05:18;;;;;;;108.00;51.07;;;8.10;99.90;;;-141.84;100.00;119224.81;5068280;28;20216;-62
2024/03/05 01:07:47;;;;;;;100.97;48.73;;;8.10;99.90;;;-141.84;100.00;119224.81;5068276;28;20226;-61
2024/03/05 01:10:15;;;;;;;103.30;49.83;;;8.10;99.90;;;-141.84;100.00;119224.81;5069728;28;20231;-62
2024/03/05 01:12:44;;;;;;;101.77;51.13;;;8.10;99.90;;;-141.84;100.00;119224.81;5070382;28;20220;-62
2024/03/05 01:15:13;;;;;;;99.83;50.17;;;8.10;99.90;;;-141.84;100.00;119224.81;5071925;28;20197;-62
2024/03/05 01:17:41;;;;;;;96.33;50.70;;;8.10;99.90;;;-141.84;100.00;119224.81;5070978;28;20674;-62
2024/03/05 01:20:15;;;;;;;101.40;51.03;;;8.10;99.90;;;-141.84;100.00;119224.81;5070305;28;20220;-62
2024/03/05 01:22:46;;;;;;;103.30;50.40;;;8.20;99.90;;;-141.84;100.00;119224.81;5025793;28;20224;-61
2024/03/05 01:25:17;;;;;;;94.27;49.43;;;8.20;99.90;;;-141.84;100.00;119224.81;5072071;28;20280;-62
2024/03/05 01:27:46;;;;;;;97.83;48.67;;;8.20;99.90;;;-141.84;100.00;119224.81;5072176;28;20302;-62
2024/03/05 01:30:18;;;;;;;103.67;53.53;;;8.10;99.90;;;-141.84;100.00;119224.81;5071499;28;20261;-62
2024/03/05 01:32:48;;;;;;;96.50;50.33;;;8.20;99.90;;;-141.84;100.00;119224.81;5070423;28;20637;-62
2024/03/05 01:35:18;;;;;;;98.33;52.03;;;8.10;99.90;;;-141.84;100.00;119224.81;5063330;28;20213;-61
2024/03/05 01:37:47;;;;;;;103.57;53.57;;;8.10;99.90;;;-141.84;100.00;119224.81;5068064;28;20221;-61
2024/03/05 01:40:19;;;;;;;97.40;52.70;;;8.20;99.90;;;-141.84;100.00;119224.81;5072780;28;20296;-61
2024/03/05 01:42:48;;;;;;;113.60;56.27;;;8.10;99.90;;;-141.84;100.00;119224.81;5071438;28;20665;-61
2024/03/05 01:45:19;;;;;;;111.40;59.13;;;8.10;99.90;;;-141.84;100.00;119224.81;5073200;28;20231;-61
2024/03/05 01:47:49;;;;;;;111.37;56.33;;;8.10;99.90;;;-141.84;100.00;119224.81;5070580;28;20213;-60
2024/03/05 01:50:18;;;;;;;112.77;58.47;;;8.10;99.90;;;-141.84;100.00;119224.81;5071680;28;20236;-61
2024/03/05 01:52:48;;;;;;;128.50;64.67;;;8.10;99.90;;;-141.84;100.00;119224.81;5070322;28;20704;-61
2024/03/05 01:55:19;;;;;;;115.30;58.77;;;8.10;99.90;;;-141.84;100.00;119224.81;5065986;28;20246;-61
2024/03/05 01:57:51;;;;;;;114.47;56.87;;;8.10;99.90;;;-141.84;100.00;119224.81;5070902;28;20220;-62
2024/03/05 02:00:24;;;;;;;106.23;50.93;;;8.10;99.90;;;-141.84;100.00;119224.81;5074878;28;20254;-61
2024/03/05 02:02:55;;;;;;;102.43;49.80;;;8.00;99.90;;;-141.84;100.00;119224.81;5074565;28;20305;-61
2024/03/05 02:05:24;;;;;;;103.00;48.13;;;8.10;99.90;;;-141.84;100.00;119224.81;5075000;28;20236;-61
2024/03/05 02:08:01;;;;;;;107.30;49.77;;;8.10;99.90;;;-141.84;100.00;119224.81;5065676;28;20240;-61
2024/03/05 02:10:30;;;;;;;111.43;50.87;;;8.10;99.90;;;-141.84;100.00;119224.81;5074530;28;20235;-62
2024/03/05 02:13:00;;;;;;;118.13;51.47;;;8.10;99.90;;;-141.84;100.00;119224.81;5074938;28;20228;-61
2024/03/05 02:15:29;;;;;;;105.50;48.20;;;8.10;99.90;;;-141.84;100.00;119224.81;5072809;28;20243;-61
2024/03/05 02:17:57;;;;;;;106.13;49.10;;;8.10;99.90;;;-141.84;100.00;119224.81;5074025;28;20201;-61
2024/03/05 02:20:28;;;;;;;104.03;47.80;;;8.10;99.90;;;-141.84;100.00;119224.81;5072121;28;20260;-61
2024/03/05 02:22:59;;;;;;;113.47;51.33;;;8.00;99.90;;;-141.84;100.00;119224.81;5073696;28;20221;-61
2024/03/05 02:25:27;;;;;;;110.23;50.23;;;8.00;99.90;;;-141.84;100.00;119224.81;5072408;28;20228;-61
2024/03/05 02:27:57;;;;;;;106.43;48.03;;;8.00;99.90;;;-141.84;100.00;119224.81;5074189;28;20221;-61
2024/03/05 02:30:26;;;;;;;109.73;49.30;;;8.00;99.90;;;-141.84;100.00;119224.81;5072634;28;20204;-61
2024/03/05 02:32:54;;;;;;;107.60;49.97;;;8.00;99.90;;;-141.84;100.00;119224.81;5074760;28;20195;-61
2024/03/05 02:35:22;;;;;;;109.10;48.63;;;8.00;99.90;;;-141.84;100.00;119224.81;5072384;28;20221;-61
2024/03/05 02:37:51;;;;;;;106.30;48.07;;;8.00;99.90;;;-141.84;100.00;119224.81;5073821;28;20221;-61
2024/03/05 02:40:25;;;;;;;113.37;49.20;;;8.00;99.90;;;-141.84;100.00;119224.81;5072397;28;20254;-61
2024/03/05 02:42:58;;;;;;;112.30;50.17;;;8.00;99.90;;;-141.84;100.00;119224.81;5073528;28;20228;-61
2024/03/05 02:45:27;;;;;;;119.83;51.17;;;8.00;99.90;;;-141.84;100.00;119224.81;5073139;28;20239;-62
2024/03/05 02:47:55;;;;;;;109.43;49.67;;;8.00;99.90;;;-141.84;100.00;119224.81;5073238;28;20281;-61
2024/03/05 02:50:24;;;;;;;108.37;46.87;;;8.00;99.90;;;-141.84;100.00;119224.81;5072283;28;20616;-61
2024/03/05 02:52:53;;;;;;;111.83;49.97;;;8.00;99.90;;;-141.84;100.00;119224.81;5072379;28;20774;-61
2024/03/05 02:55:24;;;;;;;107.27;47.87;;;8.00;99.90;;;-141.84;100.00;119224.81;5072928;28;20219;-62
2024/03/05 02:57:53;;;;;;;119.63;55.40;;;8.00;99.90;;;-141.84;100.00;119224.81;5072876;28;20232;-61
2024/03/05 03:00:24;;;;;;;100.33;50.47;;;8.00;99.90;;;-141.84;100.00;119224.81;5072805;28;20193;-61
2024/03/05 03:02:52;;;;;;;95.60;47.33;;;8.00;99.90;;;-141.84;100.00;119224.81;5072239;28;20559;-62
2024/03/05 03:05:22;;;;;;;102.37;46.87;;;8.00;99.90;;;-141.84;100.00;119224.81;5071726;28;20605;-63
2024/03/05 03:07:51;;;;;;;103.97;47.27;;;8.00;99.90;;;-141.84;100.00;119224.81;5065086;28;20228;-62
2024/03/05 03:10:20;;;;;;;106.57;49.30;;;8.00;99.90;;;-141.84;100.00;119224.81;5035521;28;20225;-61
2024/03/05 03:12:50;;;;;;;104.67;50.93;;;8.00;99.90;;;-141.84;100.00;119224.81;5071433;28;20225;-62
2024/03/05 03:15:21;;;;;;;98.90;51.40;;;8.00;99.90;;;-141.84;100.00;119224.81;5025375;28;20211;-60
2024/03/05 03:17:49;;;;;;;100.53;47.53;;;8.00;99.90;;;-141.84;100.00;119224.81;5070470;28;20640;-61
2024/03/05 03:20:18;;;;;;;107.33;48.93;;;8.00;99.90;;;-141.84;100.00;119224.81;5071973;28;20231;-61
2024/03/05 03:22:47;;;;;;;94.80;45.27;;;8.00;99.90;;;-141.84;100.00;119224.81;5071306;28;20771;-62
2024/03/05 03:25:16;;;;;;;100.00;43.30;;;8.00;99.90;;;-141.84;100.00;119224.81;5070662;28;20281;-62
2024/03/05 03:27:44;;;;;;;101.17;47.93;;;8.00;99.90;;;-141.84;100.00;119224.81;5070873;28;20221;-61
2024/03/05 03:30:17;;;;;;;109.50;48.30;;;7.90;99.90;;;-141.84;100.00;119224.81;5070585;28;20225;-61
2024/03/05 03:32:47;;;;;;;114.23;51.03;;;8.00;99.90;;;-141.84;100.00;119224.81;5071178;28;20216;-60
2024/03/05 03:35:17;;;;;;;102.23;47.80;;;8.00;99.90;;;-141.84;100.00;119224.81;5071384;28;20232;-61
2024/03/05 03:37:46;;;;;;;96.33;44.30;;;8.00;99.90;;;-141.84;100.00;119224.81;5068815;28;20232;-60
2024/03/05 03:40:21;;;;;;;102.33;45.07;;;8.00;99.90;;;-141.84;100.00;119224.81;5070098;28;20220;-60
2024/03/05 03:42:51;;;;;;;92.17;43.53;;;8.00;99.90;;;-141.84;100.00;119224.81;5070226;28;20220;-60
2024/03/05 03:45:22;;;;;;;105.40;48.30;;;8.00;99.90;;;-141.84;100.00;119224.81;5069486;28;20667;-61
2024/03/05 03:47:50;;;;;;;114.03;52.50;;;7.90;99.90;;;-141.84;100.00;119224.81;5072202;28;20220;-61
2024/03/05 03:50:19;;;;;;;104.60;45.37;;;8.00;99.90;;;-141.84;100.00;119224.81;5069805;28;20228;-61
2024/03/05 03:52:48;;;;;;;102.13;47.63;;;8.00;99.90;;;-141.84;100.00;119224.81;5070090;28;20227;-60
2024/03/05 03:55:15;;;;;;;100.67;48.30;;;8.10;99.90;;;-141.84;100.00;119224.81;5070438;28;20227;-60
2024/03/05 03:57:45;;;;;;;92.50;44.57;;;8.00;99.90;;;-141.84;100.00;119224.81;5070214;28;20735;-60
2024/03/05 04:00:18;;;;;;;108.23;50.40;;;8.10;99.90;;;-141.84;100.00;119224.81;5071377;28;20418;-60
2024/03/05 04:02:48;;;;;;;104.97;48.97;;;8.10;99.90;;;-141.84;100.00;119224.81;5070754;28;20236;-60
2024/03/05 04:05:17;;;;;;;89.43;44.20;;;8.00;99.90;;;-141.84;100.00;119224.81;5069905;28;20515;-61
2024/03/05 04:07:46;;;;;;;101.10;46.10;;;8.00;99.90;;;-141.84;100.00;119224.81;5064169;28;20228;-61
2024/03/05 04:10:17;;;;;;;94.00;43.43;;;8.00;99.90;;;-141.84;100.00;119224.81;5070970;28;20212;-61
2024/03/05 04:12:46;;;;;;;92.80;41.43;;;8.00;99.90;;;-141.84;100.00;119224.81;5070990;28;20307;-61
2024/03/05 04:15:18;;;;;;;90.93;41.33;;;8.00;99.90;;;-141.84;100.00;119224.81;5071166;28;20211;-61
2024/03/05 04:17:48;;;;;;;85.30;40.27;;;8.00;99.90;;;-141.84;100.00;119224.81;5072049;28;20238;-61
2024/03/05 04:20:16;;;;;;;84.40;40.43;;;8.10;99.90;;;-141.84;100.00;119224.81;5070145;28;20307;-61
2024/03/05 04:22:45;;;;;;;84.17;41.63;;;8.00;99.90;;;-141.84;100.00;119224.81;5070815;28;20274;-61
2024/03/05 04:25:21;;;;;;;93.40;44.83;;;8.00;99.90;;;-141.84;100.00;119224.81;5069541;28;20278;-61
2024/03/05 04:27:50;;;;;;;100.00;44.93;;;8.00;99.90;;;-141.84;100.00;119224.81;5071792;28;20707;-61
2024/03/05 04:30:19;;;;;;;90.17;40.43;;;8.00;99.90;;;-141.84;100.00;119224.81;5070818;28;20193;-62
2024/03/05 04:32:51;;;;;;;93.60;41.50;;;8.00;99.90;;;-141.84;100.00;119224.81;5070284;28;20201;-61
2024/03/05 04:35:28;;;;;;;81.70;39.43;;;7.90;99.90;;;-141.84;100.00;119224.81;5070488;28;20641;-61
2024/03/05 04:37:57;;;;;;;89.80;39.60;;;7.90;99.90;;;-141.84;100.00;119224.81;5069675;28;20268;-61
2024/03/05 04:40:26;;;;;;;86.60;40.67;;;8.00;99.90;;;-141.84;100.00;119224.81;5071290;28;20631;-61
2024/03/05 04:42:55;;;;;;;87.33;39.27;;;7.90;99.90;;;-141.84;100.00;119224.81;5071730;28;20230;-63
2024/03/05 04:45:25;;;;;;;86.53;39.93;;;7.80;99.90;;;-141.84;100.00;119224.81;5069070;28;20692;-65
2024/03/05 04:47:54;;;;;;;73.50;36.30;;;7.90;99.90;;;-141.84;100.00;119224.81;5073173;28;20200;-61
2024/03/05 04:50:23;;;;;;;81.50;37.80;;;7.90;99.90;;;-141.84;100.00;119224.81;5071839;28;20294;-61
2024/03/05 04:52:53;;;;;;;88.60;39.70;;;7.90;99.90;;;-141.84;100.00;119224.81;5069066;28;20353;-62
2024/03/05 04:55:22;;;;;;;83.10;38.77;;;7.90;99.90;;;-141.84;100.00;119224.81;5018816;28;20220;-61
2024/03/05 04:57:52;;;;;;;80.50;38.77;;;7.90;99.90;;;-141.84;100.00;119224.81;5068819;28;20221;-61
2024/03/05 05:00:21;;;;;;;81.53;38.63;;;7.80;99.90;;;-141.84;100.00;119224.81;5061335;28;20668;-62
2024/03/05 05:02:51;;;;;;;88.63;38.63;;;7.80;99.90;;;-141.84;100.00;119224.81;5071429;28;20203;-61
2024/03/05 05:05:24;;;;;;;75.17;35.93;;;7.80;99.90;;;-141.84;100.00;119224.81;5070881;28;20231;-60
2024/03/05 05:07:57;;;;;;;90.50;40.03;;;7.80;99.90;;;-141.84;100.00;119224.81;5069616;28;20216;-61
2024/03/05 05:10:26;;;;;;;82.73;37.73;;;7.80;99.90;;;-141.84;100.00;119224.81;5069917;28;20220;-60
2024/03/05 05:12:58;;;;;;;82.67;39.07;;;7.80;99.90;;;-141.84;100.00;119224.81;5070512;28;20290;-61
2024/03/05 05:15:27;;;;;;;86.07;38.57;;;7.80;99.90;;;-141.84;100.00;119224.81;5070427;28;20212;-61
2024/03/05 05:17:55;;;;;;;76.37;37.23;;;7.80;99.90;;;-141.84;100.00;119224.81;5071822;28;20207;-61
2024/03/05 05:20:27;;;;;;;86.17;38.37;;;7.80;99.90;;;-141.84;100.00;119224.81;5069867;28;20244;-61
2024/03/05 05:22:55;;;;;;;86.67;39.40;;;7.80;99.90;;;-141.84;100.00;119224.81;5070187;28;20860;-61
2024/03/05 05:25:23;;;;;;;87.63;39.93;;;7.80;99.90;;;-141.84;100.00;119224.81;5070579;28;20252;-60
2024/03/05 05:27:51;;;;;;;88.27;39.57;;;7.80;99.90;;;-141.84;100.00;119224.81;5070602;28;20243;-61
2024/03/05 05:30:23;;;;;;;86.13;39.20;;;7.90;99.90;;;-141.84;100.00;119224.81;5069702;28;20266;-61
2024/03/05 05:32:54;;;;;;;76.43;38.83;;;7.80;99.90;;;-141.84;100.00;119224.81;5069582;28;20575;-61
2024/03/05 05:35:24;;;;;;;82.97;39.37;;;7.90;99.90;;;-141.84;100.00;119224.81;5072996;28;20213;-61
2024/03/05 05:37:53;;;;;;;80.90;38.77;;;7.90;99.90;;;-141.84;100.00;119224.81;5073064;28;20225;-61
2024/03/05 05:40:22;;;;;;;79.67;38.70;;;8.00;99.90;;;-141.84;100.00;119224.81;5021675;28;20278;-61
2024/03/05 05:42:51;;;;;;;84.57;40.13;;;7.90;99.90;;;-141.84;100.00;119224.81;5073750;28;20221;-62
2024/03/05 05:45:21;;;;;;;79.23;38.47;;;7.90;99.90;;;-141.84;100.00;119224.81;5073954;28;20247;-60
2024/03/05 05:47:51;;;;;;;72.83;36.93;;;8.00;99.90;;;-141.84;100.00;119224.81;5070922;28;20648;-61
2024/03/05 05:50:22;;;;;;;69.50;37.00;;;7.90;99.90;;;-141.84;100.00;119224.81;5073881;28;20301;-61
2024/03/05 05:52:54;;;;;;;69.03;35.53;;;7.90;99.90;;;-141.84;100.00;119224.81;5074141;28;20228;-61
2024/03/05 05:55:24;;;;;;;57.87;32.37;;;7.90;99.90;;;-141.84;100.00;119224.81;5073483;28;20217;-61
2024/03/05 05:57:56;;;;;;;51.90;32.23;;;8.00;99.90;;;-141.84;100.00;119224.81;5073704;28;20239;-61
2024/03/05 06:00:36;;;;;;;49.43;30.90;;;8.00;99.90;;;-141.84;100.00;119224.81;5073843;28;20208;-61
2024/03/05 06:03:07;;;;;;;50.27;31.97;;;7.90;99.90;;;-141.84;100.00;119224.81;5073028;28;20196;-61
2024/03/05 06:05:38;;;;;;;47.50;31.13;;;7.90;99.90;;;-141.84;100.00;119224.81;5067461;28;20216;-61
2024/03/05 06:08:10;;;;;;;47.93;32.03;;;7.90;99.90;;;-141.84;100.00;119224.81;5072855;28;20216;-62
2024/03/05 06:10:42;;;;;;;50.53;32.73;;;7.90;99.90;;;-141.84;100.00;119224.81;5029917;28;20312;-61
2024/03/05 06:13:11;;;;;;;52.13;33.13;;;7.90;99.90;;;-141.84;100.00;119224.81;5073552;28;20236;-61
2024/03/05 06:15:41;;;;;;;50.17;32.63;;;7.90;99.90;;;-141.84;100.00;119224.81;5034575;28;20225;-61
2024/03/05 06:18:10;;;;;;;46.13;30.77;;;7.80;99.90;;;-141.84;100.00;119224.81;5064220;28;20205;-61
2024/03/05 06:20:40;;;;;;;47.70;31.67;;;7.80;99.90;;;-141.84;100.00;119224.81;5071179;28;20229;-60
2024/03/05 06:23:11;;;;;;;49.50;31.13;;;7.80;99.90;;;-141.84;100.00;119224.81;5071062;28;20224;-60
2024/03/05 06:25:40;;;;;;;49.27;30.97;;;7.70;99.90;;;-141.84;100.00;119224.81;5071345;28;20244;-60
2024/03/05 06:28:10;;;;;;;51.03;32.27;;;7.70;99.90;;;-141.84;100.00;119224.81;5071479;28;20263;-60
2024/03/05 06:30:43;;;;;;;49.87;32.60;;;7.60;99.90;;;-141.84;100.00;119222.75;5071422;28;20724;-62
2024/03/05 06:33:13;;;;;;;51.53;31.50;;;7.60;99.90;;;-141.84;100.00;118156.06;5071829;28;20197;-59
2024/03/05 06:35:42;;;;;;;52.10;33.10;;;7.70;99.90;;;-141.84;100.00;116290.06;5070792;28;20216;-60
2024/03/05 06:38:12;;;;;;;51.07;31.57;;;7.60;99.90;;;-141.84;100.00;116290.06;5064062;28;20220;-62
2024/03/05 06:40:40;;;;;;;49.93;31.57;;;7.60;99.90;;;-141.84;100.00;116290.06;5075105;28;20298;-60
2024/03/05 06:43:20;;;;;;;51.90;32.50;;;7.60;99.90;;;-141.84;100.00;115757.06;5073259;28;20256;-61
2024/03/05 06:45:49;;;;;;;52.33;31.90;;;7.60;99.90;;;-141.84;100.00;112028.13;5074364;28;20220;-60
2024/03/05 06:48:22;;;;;;;51.83;30.50;;;7.60;99.90;;;-141.84;100.00;111761.88;5076689;28;20220;-61
2024/03/05 06:50:57;;;;;;;50.23;30.33;;;7.60;99.90;;;-141.84;100.00;113093.19;5071156;28;20290;-61
2024/03/05 06:59:05;;;;;;;47.67;29.67;;;7.50;99.90;;;-141.84;100.00;116556.59;5073516;28;20252;-61
2024/03/05 07:01:34;;;;;;;46.10;29.57;;;7.50;99.90;;;-141.84;100.00;116023.56;5073122;28;20225;-61
2024/03/05 07:04:06;;;;;;;50.20;31.27;;;7.50;99.90;;;-141.84;100.00;116290.06;5070804;28;20231;-61
2024/03/05 07:06:34;;;;;;;48.37;28.00;;;7.50;99.90;;;-141.84;100.00;116290.06;5067603;28;20223;-61
2024/03/05 07:09:04;;;;;;;49.87;29.93;;;7.40;99.90;;;-141.84;100.00;114158.53;5071179;28;20274;-63
2024/03/05 07:11:34;;;;;;;45.93;29.13;;;7.50;99.90;;;-141.84;100.00;114691.31;5070457;28;20217;-62
2024/03/05 07:14:02;;;;;;;42.07;28.10;;;7.40;99.90;;;-141.84;100.00;112826.88;5070567;28;20597;-61
2024/03/05 07:16:32;;;;;;;44.37;28.03;;;7.50;99.90;;;-141.84;100.00;112560.63;5070871;28;20601;-60
2024/03/05 07:19:01;;;;;;;44.17;27.43;;;7.50;99.90;;;-141.84;100.00;110963.31;5069799;28;20225;-61
2024/03/05 07:21:30;;;;;;;42.93;26.53;;;7.50;99.90;;;-141.84;100.00;110963.31;5070841;28;20226;-61
2024/03/05 07:23:59;;;;;;;42.53;28.07;;;7.50;99.90;;;-141.84;100.00;110431.03;5071731;28;20607;-60
2024/03/05 07:26:31;;;;;;;43.10;27.90;;;7.50;99.90;;;-141.84;100.00;109366.66;5070900;28;20231;-62
2024/03/05 07:29:02;;;;;;;43.27;27.90;;;7.50;99.90;;;-141.84;100.00;112294.34;5054814;28;20223;-61
2024/03/05 07:31:31;;;;;;;42.63;27.97;;;7.50;99.90;;;-141.84;100.00;114158.53;5073013;28;20568;-62
2024/03/05 07:34:03;;;;;;;42.43;28.90;;;7.40;99.90;;;-141.84;100.00;110697.16;5071120;28;20216;-61
2024/03/05 07:36:35;;;;;;;45.83;28.97;;;7.50;99.90;;;-141.84;100.00;107504.66;5070796;28;20201;-61
2024/03/05 07:39:11;;;;;;;45.43;28.07;;;7.50;99.90;;;-141.84;100.00;109898.81;5036305;28;20192;-63
2024/03/05 07:41:41;;;;;;;43.53;28.30;;;7.50;99.90;;;-141.84;100.00;109898.81;5070397;28;20282;-63
2024/03/05 07:44:10;;;;;;;48.13;28.37;;;7.40;99.90;;;-141.84;100.00;109366.66;5069430;28;20312;-61
2024/03/05 07:46:38;;;;;;;44.77;28.03;;;7.40;99.90;;;-141.84;100.00;108568.56;5069785;28;20228;-61
2024/03/05 07:49:06;;;;;;;45.13;28.10;;;7.40;99.90;;;-141.84;100.00;111761.88;5070065;28;20228;-61
2024/03/05 07:51:35;;;;;;;46.87;28.17;;;7.40;99.90;;;-141.84;100.00;113093.19;5069953;28;20208;-62
2024/03/05 07:54:13;;;;;;;45.43;28.47;;;7.30;99.90;;;-141.84;100.00;114158.53;5070808;28;20188;-61
2024/03/05 07:56:43;;;;;;;45.63;29.13;;;7.30;99.90;;;-141.84;100.00;114957.72;5069303;28;20298;-60
2024/03/05 07:59:12;;;;;;;44.40;28.47;;;7.30;99.90;;;-141.84;100.00;116023.56;5069810;28;20707;-60
2024/03/05 08:01:40;;;;;;;48.93;29.47;;;7.30;99.90;;;-141.84;100.00;116823.13;5070277;28;20276;-61
2024/03/05 08:04:09;;;;;;;47.20;28.50;;;7.30;99.90;;;-141.84;100.00;115757.06;5069553;28;20220;-60
2024/03/05 08:06:38;;;;;;;50.80;29.70;;;7.30;99.90;;;-141.84;100.00;115224.16;5070006;28;20240;-61
2024/03/05 08:09:06;;;;;;;51.07;30.90;;;7.30;99.90;;;-141.84;100.00;115490.59;5070015;28;20249;-62
2024/03/05 08:11:35;;;;;;;48.37;30.77;;;7.30;99.90;;;-141.84;100.00;115757.06;5069369;28;20221;-60
2024/03/05 08:14:07;;;;;;;50.70;30.07;;;7.30;99.90;;;-141.84;100.00;114957.72;5069536;28;20307;-61
2024/03/05 08:16:37;;;;;;;50.63;29.97;;;7.40;99.90;;;-141.84;100.00;112560.63;5069770;28;20249;-60
2024/03/05 08:19:07;;;;;;;51.93;31.43;;;7.40;99.90;;;-141.84;100.00;115757.06;5066380;28;20216;-61
2024/03/05 08:21:36;;;;;;;54.00;31.60;;;7.40;99.90;;;-141.84;100.00;116556.59;5069010;28;20199;-61
2024/03/05 08:24:05;;;;;;;47.97;29.63;;;7.50;99.90;;;-141.84;100.00;110431.03;5069967;28;20197;-61
2024/03/05 08:26:33;;;;;;;45.67;28.93;;;7.50;99.90;;;-141.84;100.00;111761.88;5069360;28;20326;-60
2024/03/05 08:29:01;;;;;;;51.27;31.33;;;7.50;99.90;;;-141.84;100.00;112560.63;5069154;28;20772;-61
2024/03/05 08:31:31;;;;;;;48.50;28.70;;;7.30;99.90;;;-141.84;100.00;107770.63;5070181;28;20225;-60
2024/03/05 08:34:04;;;;;;;48.30;29.67;;;7.50;99.90;;;-141.84;100.00;109366.66;5073242;28;20345;-61
2024/03/05 08:36:36;;;;;;;44.47;28.33;;;7.50;99.90;;;-141.84;100.00;110697.16;5074549;28;20236;-60
2024/03/05 08:39:17;;;;;;;48.80;29.90;;;7.50;99.90;;;-141.84;100.00;113359.50;5066748;28;20193;-61
2024/03/05 08:41:46;;;;;;;45.50;28.87;;;7.40;99.90;;;-141.84;100.00;114158.53;5074091;28;20213;-60
2024/03/05 08:44:18;;;;;;;48.20;29.93;;;7.50;99.90;;;-141.84;100.00;113892.16;5073567;28;20224;-61
2024/03/05 08:46:48;;;;;;;45.27;27.90;;;7.40;99.90;;;-141.84;100.00;112826.88;5072290;28;20231;-62
2024/03/05 08:49:18;;;;;;;47.80;29.97;;;7.40;99.90;;;-141.84;100.00;113359.50;5073791;28;20282;-61
2024/03/05 08:51:46;;;;;;;49.57;30.67;;;7.50;99.90;;;-141.84;100.00;114158.53;5073737;28;20224;-61
2024/03/05 08:54:18;;;;;;;44.60;28.57;;;7.40;99.90;;;-141.84;100.00;109100.59;5074465;28;20200;-60
2024/03/05 08:56:46;;;;;;;46.20;28.10;;;7.50;99.90;;;-141.84;100.00;100065.22;5073728;28;20200;-61
2024/03/05 08:59:18;;;;;;;48.00;27.97;;;7.60;99.90;;;-141.84;100.00;100596.16;5073760;28;20750;-61
2024/03/05 09:01:49;;;;;;;51.00;28.07;;;7.50;99.90;;;-141.84;100.00;99534.38;5073969;28;20229;-61
2024/03/05 09:04:18;;;;;;;44.93;27.97;;;7.50;99.90;;;-141.84;100.00;104580.41;5074171;28;20254;-61
2024/03/05 09:06:47;;;;;;;42.47;27.63;;;7.50;99.90;;;-141.84;100.00;103251.88;5073202;28;20237;-60
2024/03/05 09:09:18;;;;;;;42.30;29.23;;;7.50;99.90;;;-141.84;99.59;99268.97;5075839;28;20311;-61
2024/03/05 09:11:47;;;;;;;42.83;28.33;;;7.60;99.90;;;-141.84;99.61;99268.97;5070106;28;20255;-60
2024/03/05 09:14:18;;;;;;;46.30;28.93;;;7.60;99.90;;;-141.84;97.97;94494.59;5077884;28;20220;-61
2024/03/05 09:16:47;;;;;;;40.40;26.90;;;7.60;99.90;;;-141.84;99.46;97411.59;5074155;28;20224;-62
2024/03/05 09:19:20;;;;;;;48.60;28.10;;;7.60;99.90;;;-141.84;98.59;96615.84;5077787;28;20220;-60
2024/03/05 09:21:48;;;;;;;45.80;28.17;;;7.60;99.90;;;-141.84;95.75;88931.63;5077279;28;20228;-61
2024/03/05 09:24:18;;;;;;;44.17;27.67;;;7.60;99.90;;;-141.84;97.85;94229.53;5070299;28;21100;-60
2024/03/05 09:26:47;;;;;;;42.70;28.57;;;7.70;99.90;;;-141.84;95.31;88402.22;5022225;28;20229;-61
2024/03/05 09:29:18;;;;;;;45.67;28.70;;;7.70;99.90;;;-141.84;95.31;87343.63;5075107;28;20216;-61
2024/03/05 09:31:48;;;;;;;40.93;27.73;;;7.70;99.90;;;-141.84;96.49;91314.81;5041729;28;20236;-61
2024/03/05 09:34:19;;;;;;;46.40;29.17;;;7.70;99.90;;;-141.84;94.34;84962.78;5077289;28;20224;-61
2024/03/05 09:36:48;;;;;;;42.97;28.87;;;7.70;99.90;;;-141.84;94.69;86285.31;5076165;28;20228;-62
2024/03/05 09:39:20;;;;;;;41.57;28.63;;;7.70;99.90;;;-141.84;96.33;90255.47;5077292;28;20260;-62
2024/03/05 09:41:49;;;;;;;42.03;27.77;;;7.70;99.90;;;-141.84;95.55;88931.63;5077078;28;20680;-61
2024/03/05 09:44:19;;;;;;;44.07;30.60;;;7.70;99.90;;;-141.84;93.31;82847.66;5077453;28;20228;-62
2024/03/05 09:46:49;;;;;;;40.63;27.77;;;7.70;99.90;;;-141.84;91.49;74925.88;5076239;28;20285;-61
2024/03/05 09:49:19;;;;;;;41.33;27.57;;;7.70;99.90;;;-141.84;93.47;80997.84;5076717;28;20228;-61
2024/03/05 09:51:57;;;;;;;37.83;26.63;;;7.60;99.90;;;-141.84;96.35;90255.47;5076435;28;20224;-61
2024/03/05 09:54:25;;;;;;;45.67;28.67;;;7.60;99.90;;;-141.84;92.95;82847.66;5076657;28;20192;-62
2024/03/05 09:56:59;;;;;;;42.20;27.20;;;7.70;99.90;;;-141.84;91.33;73343.38;5069115;28;20201;-60
2024/03/05 09:59:28;;;;;;;43.07;28.40;;;7.70;99.90;;;-141.84;92.20;77036.81;5077032;28;20257;-61
2024/03/05 10:02:00;;;;;;;44.90;28.10;;;7.70;99.90;;;-141.84;92.75;79148.88;5076773;28;20225;-62
2024/03/05 10:04:34;;;;;;;42.03;28.40;;;7.80;99.90;;;-141.84;90.62;72025.13;5076575;28;20231;-62